Time;durP1;ratioP1;P1;durP2;ratioP2;P2;SDS_P1;SDS_P2;PMS_P1;PMS_P2;Temp;Humidity;BMP_temperature;BMP_pressure;BME280_temperature;BME280_humidity;BME280_pressure;Samples;Min_cycle;Max_cycle;Signal;HPM_P1;HPM_P2
2022/09/16 00:00:12;;;;;;;0.80;0.80;;;;;;;;;;4935149;28;20215;-55
2022/09/16 00:02:38;;;;;;;0.70;0.70;;;;;;;;;;4945657;28;20246;-55
2022/09/16 00:05:04;;;;;;;0.87;0.87;;;;;;;;;;4940842;28;20313;-57
2022/09/16 00:07:30;;;;;;;0.70;0.70;;;;;;;;;;4939025;28;20265;-56
2022/09/16 00:09:56;;;;;;;0.70;0.70;;;;;;;;;;4946938;28;20226;-57
2022/09/16 00:12:22;;;;;;;0.90;0.90;;;;;;;;;;4939354;28;20245;-55
2022/09/16 00:14:48;;;;;;;0.77;0.77;;;;;;;;;;4938836;28;20248;-55
2022/09/16 00:17:14;;;;;;;0.90;0.90;;;;;;;;;;4936670;28;20227;-55
2022/09/16 00:19:40;;;;;;;0.80;0.80;;;;;;;;;;4938100;28;20242;-55
2022/09/16 00:22:06;;;;;;;0.80;0.80;;;;;;;;;;4945419;28;20228;-57
2022/09/16 00:24:32;;;;;;;0.93;0.93;;;;;;;;;;4940365;28;20986;-56
2022/09/16 00:26:58;;;;;;;0.80;0.80;;;;;;;;;;4940447;28;20262;-55
2022/09/16 00:29:24;;;;;;;0.90;0.90;;;;;;;;;;4941770;28;20691;-55
2022/09/16 00:31:50;;;;;;;0.83;0.83;;;;;;;;;;4940567;28;20234;-55
2022/09/16 00:34:16;;;;;;;0.70;0.70;;;;;;;;;;4944441;28;20533;-56
2022/09/16 00:36:41;;;;;;;0.70;0.70;;;;;;;;;;4925836;28;20226;-56
2022/09/16 00:39:07;;;;;;;0.80;0.80;;;;;;;;;;4938301;28;20982;-57
2022/09/16 00:41:35;;;;;;;0.70;0.70;;;;;;;;;;4940422;28;20703;-55
2022/09/16 00:44:04;;;;;;;0.70;0.70;;;;;;;;;;4947437;28;20239;-57
2022/09/16 00:46:40;;;;;;;0.80;0.80;;;;;;;;;;4933378;28;20428;-56
2022/09/16 00:49:10;;;;;;;0.80;0.80;;;;;;;;;;4927383;28;20317;-56
2022/09/16 00:51:36;;;;;;;0.90;0.90;;;;;;;;;;4949157;28;20257;-56
2022/09/16 00:54:02;;;;;;;0.90;0.90;;;;;;;;;;4940355;28;20218;-55
2022/09/16 00:56:28;;;;;;;0.67;0.67;;;;;;;;;;4935270;28;20283;-56
2022/09/16 00:59:00;;;;;;;1.00;1.00;;;;;;;;;;4939546;28;20222;-55
2022/09/16 01:01:26;;;;;;;0.80;0.80;;;;;;;;;;4937616;28;20907;-55
2022/09/16 01:03:53;;;;;;;0.93;0.93;;;;;;;;;;4939039;28;20226;-55
2022/09/16 01:06:19;;;;;;;0.70;0.70;;;;;;;;;;4927140;28;20605;-55
2022/09/16 01:08:45;;;;;;;0.60;0.60;;;;;;;;;;4930727;28;20262;-56
2022/09/16 01:11:11;;;;;;;0.90;0.90;;;;;;;;;;4931331;28;20692;-56
2022/09/16 01:13:38;;;;;;;0.60;0.60;;;;;;;;;;4938087;28;20346;-55
2022/09/16 01:16:07;;;;;;;0.83;0.83;;;;;;;;;;4924487;28;20264;-55
2022/09/16 01:18:36;;;;;;;0.70;0.70;;;;;;;;;;4936806;28;20327;-57
2022/09/16 01:21:11;;;;;;;0.80;0.80;;;;;;;;;;4937842;28;20330;-56
2022/09/16 01:23:56;;;;;;;0.80;0.80;;;;;;;;;;4939348;28;20241;-55
2022/09/16 01:26:40;;;;;;;0.80;0.80;;;;;;;;;;4938284;28;20321;-55
2022/09/16 01:29:15;;;;;;;1.00;1.00;;;;;;;;;;4936314;28;20911;-56
2022/09/16 01:31:50;;;;;;;0.90;0.90;;;;;;;;;;4929420;28;20624;-55
2022/09/16 01:34:16;;;;;;;0.90;0.90;;;;;;;;;;4942388;28;20235;-55
2022/09/16 01:36:45;;;;;;;0.90;0.90;;;;;;;;;;4935350;28;20228;-57
2022/09/16 01:39:47;;;;;;;0.70;0.70;;;;;;;;;;4946704;28;20230;-55
2022/09/16 01:42:27;;;;;;;0.83;0.83;;;;;;;;;;4900871;29;20220;-55
2022/09/16 01:45:04;;;;;;;0.90;0.90;;;;;;;;;;4925321;28;20726;-55
2022/09/16 01:47:30;;;;;;;0.80;0.80;;;;;;;;;;4940726;28;20242;-56
2022/09/16 01:50:01;;;;;;;0.90;0.90;;;;;;;;;;4942173;28;20226;-55
2022/09/16 01:52:36;;;;;;;0.80;0.80;;;;;;;;;;4939628;28;20250;-57
2022/09/16 01:55:03;;;;;;;0.90;0.90;;;;;;;;;;4942750;28;20226;-56
2022/09/16 01:57:29;;;;;;;0.80;0.80;;;;;;;;;;4932182;28;20730;-56
2022/09/16 02:00:00;;;;;;;0.70;0.70;;;;;;;;;;4944467;28;20226;-57
2022/09/16 02:02:36;;;;;;;0.90;0.90;;;;;;;;;;4947504;28;20630;-57
2022/09/16 02:05:03;;;;;;;0.83;0.83;;;;;;;;;;4938420;28;20223;-56
2022/09/16 02:07:31;;;;;;;0.80;0.80;;;;;;;;;;4936724;28;20242;-56
2022/09/16 02:09:58;;;;;;;0.90;0.90;;;;;;;;;;4926104;28;20250;-55
2022/09/16 02:12:25;;;;;;;0.90;0.90;;;;;;;;;;4943745;28;20593;-56
2022/09/16 02:14:51;;;;;;;0.90;0.90;;;;;;;;;;4944650;28;20261;-55
2022/09/16 02:17:21;;;;;;;0.80;0.80;;;;;;;;;;4934633;28;20282;-55
2022/09/16 02:19:57;;;;;;;0.90;0.90;;;;;;;;;;4946519;28;20700;-56
2022/09/16 02:22:26;;;;;;;0.80;0.80;;;;;;;;;;4953014;28;20226;-56
2022/09/16 02:24:52;;;;;;;0.90;0.90;;;;;;;;;;4940578;28;20269;-55
2022/09/16 02:27:18;;;;;;;0.80;0.80;;;;;;;;;;4930340;28;20480;-57
2022/09/16 02:29:52;;;;;;;0.80;0.80;;;;;;;;;;4944718;28;20715;-55
2022/09/16 02:32:19;;;;;;;0.90;0.90;;;;;;;;;;4953761;28;20218;-57
2022/09/16 02:34:45;;;;;;;0.90;0.90;;;;;;;;;;4948567;28;20229;-55
2022/09/16 02:37:13;;;;;;;0.70;0.70;;;;;;;;;;4951569;28;20223;-55
2022/09/16 02:39:40;;;;;;;0.80;0.80;;;;;;;;;;4937391;28;21230;-55
2022/09/16 02:42:06;;;;;;;0.83;0.83;;;;;;;;;;4935741;28;20247;-55
2022/09/16 02:44:33;;;;;;;0.90;0.90;;;;;;;;;;4936202;28;20234;-57
2022/09/16 02:47:05;;;;;;;0.83;0.83;;;;;;;;;;4942756;28;20273;-55
2022/09/16 02:49:31;;;;;;;0.90;0.90;;;;;;;;;;4943010;28;20780;-56
2022/09/16 02:52:00;;;;;;;0.80;0.80;;;;;;;;;;4943389;28;20236;-55
2022/09/16 02:54:35;;;;;;;0.90;0.90;;;;;;;;;;4940851;28;20236;-57
2022/09/16 02:57:01;;;;;;;0.90;0.90;;;;;;;;;;4940970;28;20329;-56
2022/09/16 02:59:27;;;;;;;0.90;0.90;;;;;;;;;;4941180;28;20301;-55
2022/09/16 03:01:53;;;;;;;0.83;0.83;;;;;;;;;;4944946;28;20226;-56
2022/09/16 03:04:19;;;;;;;0.80;0.80;;;;;;;;;;4940205;28;20237;-55
2022/09/16 03:06:45;;;;;;;0.70;0.70;;;;;;;;;;4940939;28;20313;-57
2022/09/16 03:09:12;;;;;;;0.90;0.90;;;;;;;;;;4922693;28;21388;-55
2022/09/16 03:11:56;;;;;;;0.80;0.80;;;;;;;;;;4933945;28;20241;-55
2022/09/16 03:14:41;;;;;;;0.80;0.80;;;;;;;;;;4934709;28;21371;-55
2022/09/16 03:17:07;;;;;;;0.80;0.80;;;;;;;;;;4943466;28;20249;-56
2022/09/16 03:19:52;;;;;;;0.80;0.80;;;;;;;;;;4939545;28;20820;-55
2022/09/16 03:22:19;;;;;;;0.80;0.80;;;;;;;;;;4912185;28;20255;-55
2022/09/16 03:24:57;;;;;;;0.80;0.80;;;;;;;;;;4930955;28;20226;-55
2022/09/16 03:27:28;;;;;;;0.80;0.80;;;;;;;;;;4932964;28;20668;-55
2022/09/16 03:30:07;;;;;;;0.90;0.90;;;;;;;;;;4941120;28;20885;-56
2022/09/16 03:32:44;;;;;;;0.90;0.90;;;;;;;;;;4942146;28;20235;-56
2022/09/16 03:35:11;;;;;;;0.80;0.80;;;;;;;;;;4954319;28;20222;-55
2022/09/16 03:37:37;;;;;;;0.90;0.90;;;;;;;;;;4938380;28;20230;-54
2022/09/16 03:40:05;;;;;;;0.90;0.90;;;;;;;;;;4942413;28;20746;-56
2022/09/16 03:42:31;;;;;;;0.80;0.80;;;;;;;;;;4923382;28;20820;-57
2022/09/16 03:44:57;;;;;;;0.90;0.90;;;;;;;;;;4944299;28;20235;-55
2022/09/16 03:47:23;;;;;;;0.87;0.87;;;;;;;;;;4938299;28;20338;-58
2022/09/16 03:49:49;;;;;;;0.70;0.70;;;;;;;;;;4943326;28;20227;-56
2022/09/16 03:52:17;;;;;;;0.60;0.60;;;;;;;;;;4941177;28;20313;-54
2022/09/16 03:54:43;;;;;;;0.70;0.70;;;;;;;;;;4935564;28;20266;-55
2022/09/16 03:57:09;;;;;;;0.70;0.70;;;;;;;;;;4939806;28;20314;-55
2022/09/16 03:59:35;;;;;;;0.80;0.80;;;;;;;;;;4942504;28;20227;-55
2022/09/16 04:02:01;;;;;;;0.90;0.90;;;;;;;;;;4938898;28;20242;-57
2022/09/16 04:04:27;;;;;;;0.97;0.97;;;;;;;;;;4932393;28;20652;-55
2022/09/16 04:06:53;;;;;;;0.70;0.70;;;;;;;;;;4939354;28;20225;-55
2022/09/16 04:09:19;;;;;;;0.90;0.90;;;;;;;;;;4928458;28;21536;-58
2022/09/16 04:11:45;;;;;;;1.00;1.00;;;;;;;;;;4925554;28;20229;-57
2022/09/16 04:14:12;;;;;;;0.90;0.90;;;;;;;;;;4925789;28;22224;-56
2022/09/16 04:16:38;;;;;;;0.90;0.90;;;;;;;;;;4907155;28;20231;-56
2022/09/16 04:19:04;;;;;;;0.70;0.70;;;;;;;;;;4921185;28;20622;-55
2022/09/16 04:21:30;;;;;;;0.80;0.80;;;;;;;;;;4915258;28;20302;-55
2022/09/16 04:23:56;;;;;;;1.00;1.00;;;;;;;;;;4922985;28;20212;-56
2022/09/16 04:26:22;;;;;;;0.80;0.80;;;;;;;;;;4939091;28;20367;-55
2022/09/16 04:28:48;;;;;;;0.90;0.90;;;;;;;;;;4939430;28;20349;-55
2022/09/16 04:31:14;;;;;;;0.80;0.80;;;;;;;;;;4912887;28;20324;-55
2022/09/16 04:33:40;;;;;;;0.70;0.70;;;;;;;;;;4938537;28;20783;-55
2022/09/16 04:36:07;;;;;;;0.90;0.90;;;;;;;;;;4938780;28;20218;-56
2022/09/16 04:38:33;;;;;;;1.00;1.00;;;;;;;;;;4930626;28;20245;-57
2022/09/16 04:41:06;;;;;;;1.00;1.00;;;;;;;;;;4939042;28;20227;-55
2022/09/16 04:43:32;;;;;;;0.80;0.80;;;;;;;;;;4935850;28;20242;-56
2022/09/16 04:45:58;;;;;;;0.80;0.80;;;;;;;;;;4922798;28;20226;-56
2022/09/16 04:48:24;;;;;;;0.90;0.90;;;;;;;;;;4926645;28;20235;-56
2022/09/16 04:50:51;;;;;;;0.90;0.90;;;;;;;;;;4904894;28;20243;-55
2022/09/16 04:53:18;;;;;;;0.93;0.93;;;;;;;;;;4919307;28;20642;-55
2022/09/16 04:55:44;;;;;;;0.90;0.90;;;;;;;;;;4923999;28;20235;-56
2022/09/16 04:58:10;;;;;;;0.90;0.90;;;;;;;;;;4934103;28;20716;-56
2022/09/16 05:00:36;;;;;;;1.07;1.07;;;;;;;;;;4914371;28;20234;-57
2022/09/16 05:03:02;;;;;;;0.83;0.83;;;;;;;;;;4917636;28;20233;-56
2022/09/16 05:05:27;;;;;;;0.90;0.90;;;;;;;;;;4921445;28;20226;-57
2022/09/16 05:07:54;;;;;;;1.00;1.00;;;;;;;;;;4933619;28;20666;-57
2022/09/16 05:10:20;;;;;;;0.90;0.90;;;;;;;;;;4915356;28;20739;-56
2022/09/16 05:12:50;;;;;;;0.80;0.80;;;;;;;;;;4923597;28;20223;-57
2022/09/16 05:15:16;;;;;;;1.00;1.00;;;;;;;;;;4925697;28;20230;-57
2022/09/16 05:17:42;;;;;;;0.90;0.90;;;;;;;;;;4947263;28;20747;-56
2022/09/16 05:20:08;;;;;;;1.00;1.00;;;;;;;;;;4953242;28;20221;-57
2022/09/16 05:22:34;;;;;;;0.90;0.90;;;;;;;;;;4940911;28;20254;-57
2022/09/16 05:25:00;;;;;;;0.87;0.87;;;;;;;;;;4943131;28;20219;-55
2022/09/16 05:27:27;;;;;;;0.90;0.90;;;;;;;;;;4955554;28;20227;-55
2022/09/16 05:29:53;;;;;;;0.90;0.90;;;;;;;;;;4929781;28;20230;-56
2022/09/16 05:32:19;;;;;;;0.90;0.90;;;;;;;;;;4918145;28;20279;-56
2022/09/16 05:34:45;;;;;;;0.80;0.80;;;;;;;;;;4943498;28;20225;-57
2022/09/16 05:37:11;;;;;;;0.90;0.90;;;;;;;;;;4944097;28;20216;-56
2022/09/16 05:39:37;;;;;;;1.00;1.00;;;;;;;;;;4945301;28;20298;-56
2022/09/16 05:42:03;;;;;;;1.10;1.10;;;;;;;;;;4958037;28;20206;-57
2022/09/16 05:44:29;;;;;;;1.00;1.00;;;;;;;;;;4945164;28;20256;-57
2022/09/16 05:46:55;;;;;;;1.00;1.00;;;;;;;;;;4941592;28;20710;-55
2022/09/16 05:49:22;;;;;;;1.00;1.00;;;;;;;;;;4946330;28;20231;-56
2022/09/16 05:51:48;;;;;;;0.90;0.90;;;;;;;;;;4930265;28;20375;-57
2022/09/16 05:54:14;;;;;;;1.00;1.00;;;;;;;;;;4925656;28;20222;-56
2022/09/16 05:56:41;;;;;;;1.10;1.10;;;;;;;;;;4928232;28;20803;-56
2022/09/16 05:59:07;;;;;;;1.00;1.00;;;;;;;;;;4928076;28;20271;-57
2022/09/16 06:01:33;;;;;;;1.07;1.07;;;;;;;;;;4945949;28;20689;-55
2022/09/16 06:04:00;;;;;;;0.90;0.90;;;;;;;;;;4923001;28;20228;-57
2022/09/16 06:06:30;;;;;;;0.90;0.90;;;;;;;;;;4951229;28;20420;-56
2022/09/16 06:08:57;;;;;;;0.90;0.90;;;;;;;;;;4974405;28;21736;-56
2022/09/16 06:11:23;;;;;;;0.90;0.90;;;;;;;;;;4947195;28;20300;-55
2022/09/16 06:13:55;;;;;;;1.17;1.17;;;;;;;;;;4946858;28;20277;-55
2022/09/16 06:16:22;;;;;;;1.00;1.00;;;;;;;;;;4949783;28;20699;-56
2022/09/16 06:18:48;;;;;;;1.10;1.10;;;;;;;;;;4953021;28;20320;-56
2022/09/16 06:21:13;;;;;;;1.20;1.20;;;;;;;;;;4935630;28;20727;-56
2022/09/16 06:23:40;;;;;;;1.00;1.00;;;;;;;;;;4943755;28;20587;-56
2022/09/16 06:26:10;;;;;;;1.10;1.10;;;;;;;;;;4919040;28;20605;-57
2022/09/16 06:28:36;;;;;;;1.00;1.00;;;;;;;;;;4946450;28;20309;-56
2022/09/16 06:31:07;;;;;;;1.00;1.00;;;;;;;;;;4937575;28;20229;-56
2022/09/16 06:33:33;;;;;;;1.20;1.20;;;;;;;;;;4950022;28;20226;-56
2022/09/16 06:36:02;;;;;;;0.93;0.93;;;;;;;;;;4962744;28;20229;-57
2022/09/16 06:38:28;;;;;;;1.17;1.17;;;;;;;;;;4948361;28;20746;-56
2022/09/16 06:40:57;;;;;;;1.30;1.30;;;;;;;;;;4920812;28;21021;-56
2022/09/16 06:43:23;;;;;;;1.20;1.20;;;;;;;;;;4942527;28;20592;-56
2022/09/16 06:45:49;;;;;;;1.10;1.10;;;;;;;;;;4944392;28;20728;-56
2022/09/16 06:48:15;;;;;;;1.00;1.00;;;;;;;;;;4943476;28;20223;-56
2022/09/16 06:50:41;;;;;;;1.10;1.10;;;;;;;;;;4942391;28;20227;-56
2022/09/16 06:53:07;;;;;;;1.17;1.17;;;;;;;;;;4945632;28;20222;-56
2022/09/16 06:55:33;;;;;;;1.00;1.00;;;;;;;;;;4958099;28;20232;-55
2022/09/16 06:57:59;;;;;;;1.10;1.10;;;;;;;;;;4949791;28;20226;-57
2022/09/16 07:00:25;;;;;;;1.10;1.10;;;;;;;;;;4961202;28;20595;-56
2022/09/16 07:02:51;;;;;;;1.20;1.20;;;;;;;;;;4953812;28;21003;-56
2022/09/16 07:05:17;;;;;;;1.00;1.00;;;;;;;;;;4953714;28;21639;-57
2022/09/16 07:07:43;;;;;;;1.00;1.00;;;;;;;;;;4929768;28;20294;-56
2022/09/16 07:10:09;;;;;;;1.17;1.17;;;;;;;;;;4919979;28;20366;-57
2022/09/16 07:12:35;;;;;;;0.90;0.90;;;;;;;;;;4926386;28;20235;-56
2022/09/16 07:15:01;;;;;;;1.17;1.17;;;;;;;;;;4929651;28;20230;-56
2022/09/16 07:17:27;;;;;;;1.00;1.00;;;;;;;;;;4960249;28;20224;-57
2022/09/16 07:19:53;;;;;;;1.10;1.10;;;;;;;;;;4959589;28;20235;-55
2022/09/16 07:22:19;;;;;;;1.10;1.10;;;;;;;;;;4951725;28;20225;-56
2022/09/16 07:24:45;;;;;;;1.00;1.00;;;;;;;;;;4941050;28;20229;-57
2022/09/16 07:27:11;;;;;;;1.10;1.10;;;;;;;;;;4947964;28;20490;-56
2022/09/16 07:29:37;;;;;;;1.20;1.20;;;;;;;;;;4962596;28;20235;-57
2022/09/16 07:32:03;;;;;;;1.27;1.27;;;;;;;;;;4952035;28;20231;-55
2022/09/16 07:34:29;;;;;;;1.10;1.10;;;;;;;;;;4957393;28;20235;-55
2022/09/16 07:36:55;;;;;;;1.20;1.20;;;;;;;;;;4961378;28;20364;-56
2022/09/16 07:39:24;;;;;;;1.10;1.10;;;;;;;;;;4957529;28;20337;-57
2022/09/16 07:41:50;;;;;;;1.00;1.00;;;;;;;;;;4938337;28;20293;-57
2022/09/16 07:44:16;;;;;;;1.30;1.30;;;;;;;;;;4939687;28;20230;-56
2022/09/16 07:46:42;;;;;;;1.20;1.20;;;;;;;;;;4920337;28;20240;-56
2022/09/16 07:49:08;;;;;;;1.10;1.10;;;;;;;;;;4953258;28;20287;-56
2022/09/16 07:51:34;;;;;;;1.10;1.10;;;;;;;;;;4963002;28;20233;-56
2022/09/16 07:54:02;;;;;;;1.23;1.23;;;;;;;;;;4944693;28;20316;-57
2022/09/16 07:56:29;;;;;;;1.10;1.10;;;;;;;;;;4931275;28;20590;-56
2022/09/16 07:58:55;;;;;;;1.27;1.27;;;;;;;;;;4936162;28;20255;-55
2022/09/16 08:01:21;;;;;;;1.40;1.40;;;;;;;;;;4934982;28;20270;-56
2022/09/16 08:03:47;;;;;;;1.23;1.23;;;;;;;;;;4926680;28;20230;-56
2022/09/16 08:06:20;;;;;;;1.20;1.20;;;;;;;;;;4918736;28;20971;-56
2022/09/16 08:08:46;;;;;;;1.10;1.10;;;;;;;;;;4927712;28;20339;-57
2022/09/16 08:11:13;;;;;;;1.20;1.20;;;;;;;;;;4928872;28;20228;-57
2022/09/16 08:13:39;;;;;;;1.00;1.00;;;;;;;;;;4924286;28;20265;-55
2022/09/16 08:16:06;;;;;;;1.20;1.20;;;;;;;;;;4945103;28;20229;-57
2022/09/16 08:18:32;;;;;;;1.20;1.20;;;;;;;;;;4944576;28;20234;-56
2022/09/16 08:21:00;;;;;;;0.90;0.90;;;;;;;;;;4936392;28;21089;-57
2022/09/16 08:23:26;;;;;;;1.10;1.10;;;;;;;;;;4944708;28;20696;-56
2022/09/16 08:25:58;;;;;;;1.17;1.17;;;;;;;;;;4919972;28;20219;-56
2022/09/16 08:28:24;;;;;;;1.20;1.20;;;;;;;;;;4924511;28;20323;-57
2022/09/16 08:30:50;;;;;;;1.47;1.47;;;;;;;;;;4923149;28;20663;-56
2022/09/16 08:33:19;;;;;;;1.40;1.40;;;;;;;;;;4929120;28;20219;-56
2022/09/16 08:35:46;;;;;;;1.40;1.40;;;;;;;;;;4935244;28;20253;-57
2022/09/16 08:38:12;;;;;;;1.67;1.67;;;;;;;;;;4926266;28;20212;-57
2022/09/16 08:40:38;;;;;;;1.20;1.20;;;;;;;;;;4934885;28;20238;-56
2022/09/16 08:43:23;;;;;;;1.40;1.40;;;;;;;;;;4916868;28;20223;-56
2022/09/16 08:45:57;;;;;;;1.00;1.00;;;;;;;;;;4917969;28;20760;-57
2022/09/16 08:48:29;;;;;;;1.00;1.00;;;;;;;;;;4933564;28;20373;-57
2022/09/16 08:50:55;;;;;;;1.10;1.10;;;;;;;;;;4948091;28;20257;-56
2022/09/16 08:53:33;;;;;;;1.10;1.10;;;;;;;;;;4933882;28;20235;-56
2022/09/16 08:55:59;;;;;;;1.20;1.20;;;;;;;;;;4918354;28;20231;-58
2022/09/16 08:58:26;;;;;;;1.30;1.30;;;;;;;;;;4939502;28;20231;-57
2022/09/16 09:00:56;;;;;;;1.00;1.00;;;;;;;;;;4935177;28;20222;-57
2022/09/16 09:03:41;;;;;;;0.90;0.90;;;;;;;;;;4937126;28;20310;-56
2022/09/16 09:06:22;;;;;;;1.13;1.13;;;;;;;;;;4941076;28;20695;-57
2022/09/16 09:08:54;;;;;;;1.10;1.10;;;;;;;;;;4943050;28;20257;-56
2022/09/16 09:11:38;;;;;;;1.20;1.20;;;;;;;;;;4924472;28;20215;-56
2022/09/16 09:14:17;;;;;;;1.20;1.20;;;;;;;;;;4908108;28;20640;-57
2022/09/16 09:17:10;;;;;;;1.27;1.27;;;;;;;;;;4901180;28;20229;-57
2022/09/16 09:19:54;;;;;;;1.20;1.20;;;;;;;;;;4939238;28;20249;-56
2022/09/16 09:22:20;;;;;;;1.10;1.10;;;;;;;;;;4940976;28;20231;-57
2022/09/16 09:25:04;;;;;;;1.23;1.23;;;;;;;;;;4922269;28;20620;-55
2022/09/16 09:27:31;;;;;;;1.20;1.20;;;;;;;;;;4918961;28;20240;-56
2022/09/16 09:30:15;;;;;;;1.37;1.37;;;;;;;;;;4913872;28;20226;-57
2022/09/16 09:32:53;;;;;;;1.47;1.47;;;;;;;;;;4911941;28;20230;-56
2022/09/16 09:35:24;;;;;;;1.60;1.60;;;;;;;;;;4915701;28;20776;-56
2022/09/16 09:37:50;;;;;;;1.40;1.40;;;;;;;;;;4919468;28;20226;-56
2022/09/16 09:40:16;;;;;;;1.30;1.30;;;;;;;;;;4932672;28;20229;-55
2022/09/16 09:42:50;;;;;;;1.20;1.20;;;;;;;;;;4934143;28;20647;-56
2022/09/16 09:45:25;;;;;;;1.40;1.40;;;;;;;;;;4919970;28;20869;-56
2022/09/16 09:47:54;;;;;;;1.10;1.10;;;;;;;;;;4912633;28;20264;-56
2022/09/16 09:50:30;;;;;;;1.30;1.30;;;;;;;;;;4957074;28;20272;-56
2022/09/16 09:53:11;;;;;;;1.67;1.67;;;;;;;;;;4935980;28;20704;-56
2022/09/16 09:55:37;;;;;;;1.63;1.63;;;;;;;;;;4933777;28;20672;-57
2022/09/16 09:58:18;;;;;;;1.50;1.50;;;;;;;;;;4926021;28;20229;-58
2022/09/16 10:00:44;;;;;;;1.50;1.50;;;;;;;;;;4916395;28;20236;-58
2022/09/16 10:03:15;;;;;;;1.00;1.00;;;;;;;;;;4930080;28;20231;-57
2022/09/16 10:05:41;;;;;;;1.00;1.00;;;;;;;;;;4920327;28;20830;-57
2022/09/16 10:08:16;;;;;;;1.08;1.08;;;;;;;;;;4925004;28;21047;-57
2022/09/16 10:10:47;;;;;;;0.90;0.90;;;;;;;;;;4932772;28;20718;-57
2022/09/16 10:13:13;;;;;;;0.90;0.90;;;;;;;;;;4934856;28;20344;-57
2022/09/16 10:15:39;;;;;;;1.00;1.00;;;;;;;;;;4912979;28;20227;-58
2022/09/16 10:18:24;;;;;;;0.90;0.90;;;;;;;;;;4938402;28;20241;-57
2022/09/16 10:21:06;;;;;;;0.95;0.95;;;;;;;;;;4950497;28;20306;-57
2022/09/16 10:23:32;;;;;;;0.90;0.90;;;;;;;;;;4928476;28;20794;-58
2022/09/16 10:26:18;;;;;;;0.80;0.80;;;;;;;;;;4924856;28;20222;-58
2022/09/16 10:29:00;;;;;;;0.70;0.70;;;;;;;;;;4935483;28;20230;-57
2022/09/16 10:31:27;;;;;;;0.60;0.60;;;;;;;;;;4916079;28;20240;-57
2022/09/16 10:33:53;;;;;;;0.73;0.73;;;;;;;;;;4925062;28;20224;-57
2022/09/16 10:36:20;;;;;;;0.70;0.70;;;;;;;;;;4945167;28;20234;-57
2022/09/16 10:38:47;;;;;;;0.80;0.80;;;;;;;;;;4940632;28;20222;-57
2022/09/16 10:41:17;;;;;;;0.90;0.90;;;;;;;;;;4934141;28;20224;-57
2022/09/16 10:43:47;;;;;;;1.00;1.00;;;;;;;;;;4932912;28;20223;-58
2022/09/16 10:46:14;;;;;;;1.40;1.40;;;;;;;;;;4946734;28;20249;-57
2022/09/16 10:48:40;;;;;;;2.20;2.10;;;;;;;;;;4939087;28;20277;-56
2022/09/16 10:51:06;;;;;;;1.90;1.80;;;;;;;;;;4957129;28;20693;-56
2022/09/16 10:53:33;;;;;;;1.60;1.60;;;;;;;;;;4937845;28;20579;-57
2022/09/16 10:56:00;;;;;;;2.00;1.90;;;;;;;;;;4950836;28;20250;-57
2022/09/16 10:58:26;;;;;;;1.60;1.60;;;;;;;;;;4950010;28;20312;-57
2022/09/16 11:01:13;;;;;;;1.80;1.70;;;;;;;;;;4950432;28;20251;-57
2022/09/16 11:03:48;;;;;;;1.90;1.80;;;;;;;;;;4928734;28;20229;-57
2022/09/16 11:06:14;;;;;;;1.87;1.77;;;;;;;;;;4946656;28;20226;-58
2022/09/16 11:08:53;;;;;;;1.70;1.70;;;;;;;;;;4935039;28;20260;-57
2022/09/16 11:11:19;;;;;;;1.52;1.52;;;;;;;;;;4950426;28;20691;-57
2022/09/16 11:13:52;;;;;;;1.30;1.30;;;;;;;;;;4957034;28;20293;-57
2022/09/16 11:16:21;;;;;;;1.30;1.30;;;;;;;;;;4937439;28;20226;-56
2022/09/16 11:18:56;;;;;;;1.20;1.20;;;;;;;;;;4925288;28;20324;-56
2022/09/16 11:21:22;;;;;;;1.00;1.00;;;;;;;;;;4919624;28;20226;-55
2022/09/16 11:23:54;;;;;;;1.00;1.00;;;;;;;;;;4926952;28;21298;-55
2022/09/16 11:26:31;;;;;;;0.90;0.90;;;;;;;;;;4930661;28;21822;-54
2022/09/16 11:29:08;;;;;;;0.70;0.70;;;;;;;;;;4922589;28;20917;-54
2022/09/16 11:31:46;;;;;;;1.50;1.50;;;;;;;;;;4934680;28;20278;-57
2022/09/16 11:34:18;;;;;;;1.70;1.67;;;;;;;;;;4935264;28;20269;-57
2022/09/16 11:36:44;;;;;;;1.00;1.00;;;;;;;;;;4924890;28;20227;-56
2022/09/16 11:39:10;;;;;;;0.90;0.90;;;;;;;;;;4924877;28;20338;-56
2022/09/16 11:41:36;;;;;;;0.90;0.90;;;;;;;;;;4935851;28;21166;-55
2022/09/16 11:44:22;;;;;;;1.00;1.00;;;;;;;;;;4935285;28;20349;-55
2022/09/16 11:47:07;;;;;;;1.40;1.40;;;;;;;;;;4926220;28;20227;-56
2022/09/16 11:49:48;;;;;;;1.35;1.35;;;;;;;;;;4936218;28;20227;-56
2022/09/16 11:52:17;;;;;;;1.48;1.48;;;;;;;;;;4937934;28;20255;-56
2022/09/16 11:55:02;;;;;;;1.60;1.60;;;;;;;;;;4937522;28;20235;-57
2022/09/16 11:57:29;;;;;;;1.05;1.05;;;;;;;;;;4927872;28;20234;-57
2022/09/16 11:59:57;;;;;;;0.90;0.90;;;;;;;;;;4925751;28;20595;-56
2022/09/16 12:02:26;;;;;;;0.82;0.82;;;;;;;;;;4940402;28;20799;-56
2022/09/16 12:05:02;;;;;;;0.90;0.90;;;;;;;;;;4937972;28;20289;-54
2022/09/16 12:07:32;;;;;;;0.90;0.90;;;;;;;;;;4928960;28;20739;-58
2022/09/16 12:09:58;;;;;;;0.90;0.90;;;;;;;;;;4934395;28;20243;-56
2022/09/16 12:12:25;;;;;;;0.90;0.90;;;;;;;;;;4920252;28;20727;-57
2022/09/16 12:15:10;;;;;;;0.93;0.93;;;;;;;;;;4913618;28;20237;-57
2022/09/16 12:17:37;;;;;;;1.00;1.00;;;;;;;;;;4913752;28;20236;-58
2022/09/16 12:20:38;;;;;;;0.90;0.90;;;;;;;;;;4925237;28;20219;-57
2022/09/16 12:23:17;;;;;;;1.10;1.10;;;;;;;;;;4848111;29;21636;-58
2022/09/16 12:25:49;;;;;;;1.08;1.08;;;;;;;;;;4923324;28;20322;-58
2022/09/16 12:28:16;;;;;;;1.20;1.20;;;;;;;;;;4930336;28;20234;-55
2022/09/16 12:30:44;;;;;;;1.02;1.02;;;;;;;;;;4942326;28;20274;-56
2022/09/16 12:33:21;;;;;;;1.10;1.10;;;;;;;;;;4932066;28;20734;-56
2022/09/16 12:35:57;;;;;;;1.00;1.00;;;;;;;;;;4933958;28;20238;-56
2022/09/16 12:38:23;;;;;;;1.00;1.00;;;;;;;;;;4934058;28;20229;-56
2022/09/16 12:41:02;;;;;;;1.10;1.10;;;;;;;;;;4943052;28;20309;-56
2022/09/16 12:43:36;;;;;;;1.00;1.00;;;;;;;;;;4933656;28;20218;-56
2022/09/16 12:46:02;;;;;;;1.20;1.20;;;;;;;;;;4939058;28;20305;-57
2022/09/16 12:48:31;;;;;;;1.20;1.20;;;;;;;;;;4940672;28;20770;-56
2022/09/16 12:51:03;;;;;;;1.15;1.15;;;;;;;;;;4940763;28;20590;-56
2022/09/16 12:53:38;;;;;;;1.02;1.02;;;;;;;;;;4938579;28;20240;-56
2022/09/16 12:56:22;;;;;;;1.20;1.20;;;;;;;;;;4945819;28;20229;-57
2022/09/16 12:58:59;;;;;;;2.20;2.10;;;;;;;;;;4939426;28;20245;-57
2022/09/16 13:01:26;;;;;;;2.00;1.90;;;;;;;;;;4930513;28;20233;-57
2022/09/16 13:04:00;;;;;;;1.90;1.80;;;;;;;;;;4923451;28;20226;-57
2022/09/16 13:06:33;;;;;;;1.90;1.80;;;;;;;;;;4938080;28;20599;-56
2022/09/16 13:09:10;;;;;;;2.00;1.90;;;;;;;;;;4940861;28;20230;-56
2022/09/16 13:11:36;;;;;;;2.00;1.90;;;;;;;;;;4943414;28;20258;-57
2022/09/16 13:14:02;;;;;;;1.90;1.80;;;;;;;;;;4945591;28;20659;-56
2022/09/16 13:16:29;;;;;;;2.00;1.90;;;;;;;;;;4931741;28;20826;-57
2022/09/16 13:19:22;;;;;;;2.15;2.05;;;;;;;;;;4923289;28;20243;-57
2022/09/16 13:21:48;;;;;;;1.70;1.70;;;;;;;;;;4938061;28;20235;-56
2022/09/16 13:24:14;;;;;;;2.00;1.90;;;;;;;;;;4935218;28;20618;-56
2022/09/16 13:26:43;;;;;;;2.00;1.90;;;;;;;;;;4941595;28;20243;-56
2022/09/16 13:29:28;;;;;;;1.70;1.70;;;;;;;;;;4946915;28;20591;-57
2022/09/16 13:31:54;;;;;;;2.00;1.90;;;;;;;;;;4938842;28;20242;-56
2022/09/16 13:34:20;;;;;;;1.98;1.88;;;;;;;;;;4910073;28;20648;-56
2022/09/16 13:36:46;;;;;;;2.08;1.98;;;;;;;;;;4917202;28;20303;-56
2022/09/16 13:39:14;;;;;;;1.90;1.80;;;;;;;;;;4937870;28;20219;-56
2022/09/16 13:41:40;;;;;;;2.10;2.00;;;;;;;;;;4941667;28;20250;-56
2022/09/16 13:44:25;;;;;;;1.90;1.80;;;;;;;;;;4928850;28;20235;-56
2022/09/16 13:46:51;;;;;;;1.60;1.60;;;;;;;;;;4942281;28;20226;-55
2022/09/16 13:49:22;;;;;;;1.90;1.80;;;;;;;;;;4948952;28;20226;-55
2022/09/16 13:51:48;;;;;;;2.00;1.90;;;;;;;;;;4935463;28;20232;-56
2022/09/16 13:54:19;;;;;;;2.10;2.00;;;;;;;;;;4927842;28;20226;-57
2022/09/16 13:56:54;;;;;;;1.75;1.70;;;;;;;;;;4926749;28;20238;-57
2022/09/16 13:59:29;;;;;;;1.80;1.70;;;;;;;;;;4929638;28;20234;-56
2022/09/16 14:01:59;;;;;;;1.77;1.70;;;;;;;;;;4935021;28;20245;-56
2022/09/16 14:04:25;;;;;;;1.90;1.80;;;;;;;;;;4943383;28;20326;-56
2022/09/16 14:07:17;;;;;;;1.73;1.70;;;;;;;;;;4931031;28;20598;-58
2022/09/16 14:09:59;;;;;;;1.40;1.40;;;;;;;;;;4906309;28;25813;-57
2022/09/16 14:12:35;;;;;;;1.80;1.70;;;;;;;;;;4930314;28;20291;-57
2022/09/16 14:15:01;;;;;;;1.90;1.80;;;;;;;;;;4937211;28;20589;-57
2022/09/16 14:17:28;;;;;;;1.58;1.58;;;;;;;;;;4913271;28;20241;-56
2022/09/16 14:19:56;;;;;;;1.50;1.50;;;;;;;;;;4930778;28;20239;-58
2022/09/16 14:22:24;;;;;;;1.42;1.42;;;;;;;;;;4919145;28;20695;-58
2022/09/16 14:24:50;;;;;;;1.50;1.50;;;;;;;;;;4915221;28;20299;-56
2022/09/16 14:27:22;;;;;;;1.48;1.48;;;;;;;;;;4908254;28;20262;-57
2022/09/16 14:29:58;;;;;;;1.40;1.40;;;;;;;;;;4925000;28;20953;-56
2022/09/16 14:32:28;;;;;;;1.33;1.33;;;;;;;;;;4928966;28;20569;-57
2022/09/16 14:34:54;;;;;;;1.60;1.60;;;;;;;;;;4911544;28;20262;-56
2022/09/16 14:37:20;;;;;;;1.50;1.50;;;;;;;;;;4924452;28;20211;-57
2022/09/16 14:39:46;;;;;;;1.60;1.60;;;;;;;;;;4932395;28;20294;-57
2022/09/16 14:42:16;;;;;;;1.55;1.55;;;;;;;;;;4930254;28;20227;-57
2022/09/16 14:44:45;;;;;;;1.40;1.40;;;;;;;;;;4925502;28;20269;-56
2022/09/16 14:47:23;;;;;;;1.40;1.40;;;;;;;;;;4912192;28;21603;-57
2022/09/16 14:49:50;;;;;;;1.60;1.60;;;;;;;;;;4906114;28;20738;-57
2022/09/16 14:52:20;;;;;;;1.30;1.30;;;;;;;;;;4915506;28;20307;-57
2022/09/16 14:54:46;;;;;;;1.40;1.40;;;;;;;;;;4944914;28;20661;-57
2022/09/16 14:57:17;;;;;;;1.50;1.50;;;;;;;;;;4939395;28;20219;-56